Information Last Ob Photographs Calibration Meteogram Network Table Neighbors Monthly Summaries Observation History Wind Roses Custom Wind Roses Data Calendar Satellite Cloud Product Download

24 February 2024 Observation History, [FSW] FORT MADISON, timezone: America/Chicago

Select Date: Time Order:

Show METARs   Show High Frequency MADIS

Previous Day
Time Wind
(mph)
Vis.
(mi.)
Sky Cond.
(100s ft)
Present Wx Temperature (ºF) Relative
Humidity
Pressure Snow
Depth
(in)
Precipitation (in.)
Air Dwpt Feels Like 6 hour altimeter
(in.)
sea level
(mb)
1 hr 3 hr 6 hr
Max.Min.
12:15 AMNNW 1010 362828 75% 29.940
KFSW 240615Z AUTO 34009KT 10SM 02/M02 A2994 RMK AO2
12:35 AMN 15G 2010 362826 75% 29.940
KFSW 240635Z AUTO 35013G17KT 10SM 02/M02 A2994 RMK AO2
12:55 AMN 1310 362827 75% 29.960
KFSW 240655Z AUTO 01011KT 10SM 02/M02 A2996 RMK AO2
1:15 AMNNE 1010 362828 75% 29.970
KFSW 240715Z AUTO 02009KT 10SM 02/M02 A2997 RMK AO2
1:35 AMNNE 910 342726 75% 29.980
KFSW 240735Z AUTO 02008KT 10SM 01/M03 A2998 RMK AO2
1:55 AMNNE 810 322725 80% 29.980
KFSW 240755Z AUTO 02007KT 10SM 00/M03 A2998 RMK AO2
2:15 AMNNE 810 322825 86% 29.990
KFSW 240815Z AUTO 02007KT 10SM 00/M02 A2999 RMK AO2
2:35 AMNE 910 302722 86% 29.990
KFSW 240835Z AUTO 05008KT 10SM M01/M03 A2999 RMK AO2
2:55 AMNNE 610 302524 80% 300
KFSW 240855Z AUTO 02005KT 10SM M01/M04 A3000 RMK AO2
3:15 AMN 510 282523 86% 300
KFSW 240915Z AUTO 01004KT 10SM M02/M04 A3000 RMK AO2
3:35 AMNNE 510 282523 86% 30.010
KFSW 240935Z AUTO 02004KT 10SM M02/M04 A3001 RMK AO2
3:55 AMN 710 282521 86% 30.020
KFSW 240955Z AUTO 36006KT 10SM M02/M04 A3002 RMK AO2
4:15 AMN 510 272121 80% 30.030
KFSW 241015Z AUTO 36004KT 10SM M03/M06 A3003 RMK AO2
4:35 AMN 510 252119 86% 30.040
KFSW 241035Z AUTO 36004KT 10SM M04/M06 A3004 RMK AO2
4:55 AMN 310 252120 86% 30.050
KFSW 241055Z AUTO 36003KT 10SM M04/M06 A3005 RMK AO2
5:15 AMN 310 251920 80% 30.060
KFSW 241115Z AUTO 36003KT 10SM M04/M07 A3006 RMK AO2
5:35 AMN 310 251920 80% 30.070
KFSW 241135Z AUTO 36003KT 10SM M04/M07 A3007 RMK AO2
5:55 AMCalm10 231923 86% 30.080
KFSW 241155Z AUTO 00000KT 10SM M05/M07 A3008 RMK AO2
6:15 AMCalm10 231923 86% 30.090
KFSW 241215Z AUTO 00000KT 10SM M05/M07 A3009 RMK AO2
6:35 AMCalm10 231923 86% 30.090
KFSW 241235Z AUTO 00000KT 10SM M05/M07 A3009 RMK AO2
6:55 AMCalm10 252125 86% 30.10
KFSW 241255Z AUTO 00000KT 10SM M04/M06 A3010 RMK AO2
7:15 AMCalm10 251925 80% 30.10
KFSW 241315Z AUTO 00000KT 10SM M04/M07 A3010 RMK AO2
7:35 AME 610 251818 74% 30.110
KFSW 241335Z AUTO 08005KT 10SM M04/M08 A3011 RMK AO2
7:55 AME 610 251818 74% 30.110
KFSW 241355Z AUTO 08005KT 10SM M04/M08 A3011 RMK AO2
8:15 AMESE 610 271820 68% 30.120
KFSW 241415Z AUTO 11005KT 10SM M03/M08 A3012 RMK AO2
8:35 AME 610 271820 68% 30.120
KFSW 241435Z AUTO 09005KT 10SM M03/M08 A3012 RMK AO2
8:55 AME 610 271820 68% 30.120
KFSW 241455Z AUTO 10005KT 10SM M03/M08 A3012 RMK AO2
9:15 AMSE 510 281823 64% 30.120
KFSW 241515Z AUTO 13004KT 10SM M02/M08 A3012 RMK AO2
9:35 AMSE 610 281822 64% 30.130
KFSW 241535Z AUTO 13005KT 10SM M02/M08 A3013 RMK AO2
9:55 AMSE 310 301827 59% 30.130
KFSW 241555Z AUTO 14003KT 10SM M01/M08 A3013 RMK AO2
10:15 AMCalm10 301830 59% 30.130
KFSW 241615Z AUTO 00000KT 10SM M01/M08 A3013 RMK AO2
10:35 AMS 510 321927 59% 30.120
KFSW 241635Z AUTO 17004KT 10SM 00/M07 A3012 RMK AO2
10:55 AMCalm10 341934 55% 30.120
KFSW 241655Z AUTO 00000KT 10SM 01/M07 A3012 RMK AO2
11:15 AMCalm10 341834 51% 30.110
KFSW 241715Z AUTO 00000KT 10SM 01/M08 A3011 RMK AO2
11:35 AMCalm10 341834 51% 30.110
KFSW 241735Z AUTO 00000KT 10SM 01/M08 A3011 RMK AO2
11:55 AMS 510 361832 48% 30.110
KFSW 241755Z AUTO 17004KT 10SM 02/M08 A3011 RMK AO2
12:15 PMWSW 610 361831 48% 30.10
KFSW 241815Z AUTO 24005KT 10SM 02/M08 A3010 RMK AO2
12:35 PMS 710 371832 44% 30.090
KFSW 241835Z AUTO 17006KT 10SM 03/M08 A3009 RMK AO2
12:55 PMS 710 371932 48% 30.070
KFSW 241855Z AUTO 17006KT 10SM 03/M07 A3007 RMK AO2
1:15 PMSW 510 371834 44% 30.060
KFSW 241915Z AUTO 22004KT 10SM 03/M08 A3006 RMK AO2
1:35 PMSSW 710 391934 45% 30.050
KFSW 241935Z AUTO 20006KT 10SM 04/M07 A3005 RMK AO2
1:55 PMSSW 810 391934 45% 30.040
KFSW 241955Z AUTO 19007KT 10SM 04/M07 A3004 RMK AO2
2:15 PMS 610 391935 45% 30.030
KFSW 242015Z AUTO 18005KT 10SM 04/M07 A3003 RMK AO2
2:35 PMSSW 810 411836 38% 30.020
KFSW 242035Z AUTO 20007KT 180V250 10SM 05/M08 A3002 RMK AO2
2:55 PMSSW 710 431839 36% 30.020
KFSW 242055Z AUTO 19006KT 10SM 06/M08 A3002 RMK AO2
3:15 PMSSE 810 431838 36% 30.010
KFSW 242115Z AUTO 16007KT 10SM 06/M08 A3001 RMK AO2
3:35 PMSSW 12G 1610 431837 36% 29.990
KFSW 242135Z AUTO 19010G14KT 10SM 06/M08 A2999 RMK AO2
3:55 PMS 910 431937 39% 29.980
KFSW 242155Z AUTO 18008KT 10SM 06/M07 A2998 RMK AO2
4:15 PMS 910 431837 36% 29.970
KFSW 242215Z AUTO 17008KT 10SM 06/M08 A2997 RMK AO2
4:35 PMS 810 431838 36% 29.970
KFSW 242235Z AUTO 17007KT 10SM 06/M08 A2997 RMK AO2
4:55 PMS 1010 431937 39% 29.970
KFSW 242255Z AUTO 17009KT 10SM 06/M07 A2997 RMK AO2
5:15 PMS 1010 431837 36% 29.950
KFSW 242315Z AUTO 17009KT 10SM 06/M08 A2995 RMK AO2
5:35 PMS 810 431938 39% 29.950
KFSW 242335Z AUTO 17007KT 10SM 06/M07 A2995 RMK AO2
5:55 PMS 810 411936 42% 29.950
KFSW 242355Z AUTO 17007KT 10SM 05/M07 A2995 RMK AO2
6:15 PMS 510 391936 45% 29.960
KFSW 250015Z AUTO 18004KT 10SM 04/M07 A2996 RMK AO2
6:35 PMS 510 391936 45% 29.970
KFSW 250035Z AUTO 18004KT 10SM 04/M07 A2997 RMK AO2
6:55 PMS 310 391937 45% 29.970
KFSW 250055Z AUTO 18003KT 10SM 04/M07 A2997 RMK AO2
7:15 PMS 510 392136 48% 29.960
KFSW 250115Z AUTO 17004KT 10SM 04/M06 A2996 RMK AO2
7:35 PMS 310 392137 48% 29.950
KFSW 250135Z AUTO 17003KT 10SM 04/M06 A2995 RMK AO2
7:55 PMS 610 372133 52% 29.950
KFSW 250155Z AUTO 17005KT 10SM 03/M06 A2995 RMK AO2
8:15 PMS 510 371934 48% 29.940
KFSW 250215Z AUTO 17004KT 10SM 03/M07 A2994 RMK AO2
8:35 PMS 710 371932 48% 29.930
KFSW 250235Z AUTO 17006KT 10SM 03/M07 A2993 RMK AO2
8:55 PMSSE 810 371931 48% 29.930
KFSW 250255Z AUTO 16007KT 10SM 03/M07 A2993 RMK AO2
9:15 PMSSE 710 371932 48% 29.920
KFSW 250315Z AUTO 16006KT 10SM 03/M07 A2992 RMK AO2
9:35 PMSSE 810 371931 48% 29.920
KFSW 250335Z AUTO 16007KT 10SM 03/M07 A2992 RMK AO2
9:55 PMSSE 810 361929 51% 29.910
KFSW 250355Z AUTO 16007KT 10SM 02/M07 A2991 RMK AO2
10:15 PMSSE 910 362129 55% 29.90
KFSW 250415Z AUTO 16008KT 10SM 02/M06 A2990 RMK AO2
10:35 PMS 810 362129 55% 29.890
KFSW 250435Z AUTO 17007KT 10SM 02/M06 A2989 RMK AO2

The IEM API webservice that provided data to this page. For more details, see documentation.

Data Notes

  • For recent years, this page also optionally shows observations from the MADIS High Frequency METAR dataset. This dataset had a problem with temperatures detailed here.